sensor_id;sensor_type;location;lat;lon;timestamp;temperature;humidity
17740;DHT22;8990;33.226;-97.150;2023-07-20T00:01:21;39.00;76.90
17740;DHT22;8990;33.226;-97.150;2023-07-20T00:03:49;39.00;77.10
17740;DHT22;8990;33.226;-97.150;2023-07-20T00:06:21;38.90;76.60
17740;DHT22;8990;33.226;-97.150;2023-07-20T00:08:50;39.00;75.80
17740;DHT22;8990;33.226;-97.150;2023-07-20T00:11:21;39.00;77.50
17740;DHT22;8990;33.226;-97.150;2023-07-20T00:13:50;38.90;78.80
17740;DHT22;8990;33.226;-97.150;2023-07-20T00:16:19;38.80;80.20
17740;DHT22;8990;33.226;-97.150;2023-07-20T00:18:48;38.90;80.90
17740;DHT22;8990;33.226;-97.150;2023-07-20T00:21:17;38.80;81.00
17740;DHT22;8990;33.226;-97.150;2023-07-20T00:23:46;38.80;81.40
17740;DHT22;8990;33.226;-97.150;2023-07-20T00:26:15;38.70;82.10
17740;DHT22;8990;33.226;-97.150;2023-07-20T00:28:48;38.70;82.80
17740;DHT22;8990;33.226;-97.150;2023-07-20T00:31:19;38.60;82.60
17740;DHT22;8990;33.226;-97.150;2023-07-20T00:33:48;38.60;83.00
17740;DHT22;8990;33.226;-97.150;2023-07-20T00:36:17;38.50;83.20
17740;DHT22;8990;33.226;-97.150;2023-07-20T00:38:46;38.50;83.10
17740;DHT22;8990;33.226;-97.150;2023-07-20T00:41:18;38.50;83.20
17740;DHT22;8990;33.226;-97.150;2023-07-20T00:43:48;38.40;83.20
17740;DHT22;8990;33.226;-97.150;2023-07-20T00:46:17;38.30;83.30
17740;DHT22;8990;33.226;-97.150;2023-07-20T00:48:46;38.30;83.40
17740;DHT22;8990;33.226;-97.150;2023-07-20T00:51:15;38.30;83.90
17740;DHT22;8990;33.226;-97.150;2023-07-20T00:53:46;38.20;83.50
17740;DHT22;8990;33.226;-97.150;2023-07-20T00:56:15;38.20;84.10
17740;DHT22;8990;33.226;-97.150;2023-07-20T00:58:45;38.10;84.50
17740;DHT22;8990;33.226;-97.150;2023-07-20T01:01:15;38.00;84.30
17740;DHT22;8990;33.226;-97.150;2023-07-20T01:03:44;37.90;83.80
17740;DHT22;8990;33.226;-97.150;2023-07-20T01:06:23;37.80;83.40
17740;DHT22;8990;33.226;-97.150;2023-07-20T01:09:02;37.80;83.10
17740;DHT22;8990;33.226;-97.150;2023-07-20T01:11:39;37.80;83.10
17740;DHT22;8990;33.226;-97.150;2023-07-20T01:14:12;37.60;83.20
17740;DHT22;8990;33.226;-97.150;2023-07-20T01:16:44;37.70;82.20
17740;DHT22;8990;33.226;-97.150;2023-07-20T01:19:14;37.60;82.10
17740;DHT22;8990;33.226;-97.150;2023-07-20T01:21:47;37.50;82.00
17740;DHT22;8990;33.226;-97.150;2023-07-20T01:24:41;37.40;82.00
17740;DHT22;8990;33.226;-97.150;2023-07-20T01:27:34;37.40;81.60
17740;DHT22;8990;33.226;-97.150;2023-07-20T01:30:17;37.30;81.50
17740;DHT22;8990;33.226;-97.150;2023-07-20T01:32:55;37.30;81.90
17740;DHT22;8990;33.226;-97.150;2023-07-20T01:35:28;37.20;82.00
17740;DHT22;8990;33.226;-97.150;2023-07-20T01:37:59;37.10;81.70
17740;DHT22;8990;33.226;-97.150;2023-07-20T01:40:28;37.10;81.20
17740;DHT22;8990;33.226;-97.150;2023-07-20T01:42:57;37.00;82.50
17740;DHT22;8990;33.226;-97.150;2023-07-20T01:45:26;36.90;82.00
17740;DHT22;8990;33.226;-97.150;2023-07-20T01:47:59;36.90;81.90
17740;DHT22;8990;33.226;-97.150;2023-07-20T01:50:28;36.80;82.30
17740;DHT22;8990;33.226;-97.150;2023-07-20T01:52:57;36.70;82.60
17740;DHT22;8990;33.226;-97.150;2023-07-20T01:55:25;36.70;82.80
17740;DHT22;8990;33.226;-97.150;2023-07-20T01:57:55;36.70;83.20
17740;DHT22;8990;33.226;-97.150;2023-07-20T02:00:26;36.60;83.40
17740;DHT22;8990;33.226;-97.150;2023-07-20T02:02:55;36.60;83.70
17740;DHT22;8990;33.226;-97.150;2023-07-20T02:05:26;36.50;84.00
17740;DHT22;8990;33.226;-97.150;2023-07-20T02:07:55;36.50;84.30
17740;DHT22;8990;33.226;-97.150;2023-07-20T02:10:24;36.40;84.20
17740;DHT22;8990;33.226;-97.150;2023-07-20T02:12:53;36.30;84.30
17740;DHT22;8990;33.226;-97.150;2023-07-20T02:15:22;36.40;84.50
17740;DHT22;8990;33.226;-97.150;2023-07-20T02:17:52;36.30;84.50
17740;DHT22;8990;33.226;-97.150;2023-07-20T02:20:21;36.30;85.10
17740;DHT22;8990;33.226;-97.150;2023-07-20T02:22:53;36.20;85.70
17740;DHT22;8990;33.226;-97.150;2023-07-20T02:25:22;36.10;86.10
17740;DHT22;8990;33.226;-97.150;2023-07-20T02:27:51;36.10;86.60
17740;DHT22;8990;33.226;-97.150;2023-07-20T02:30:20;36.00;86.90
17740;DHT22;8990;33.226;-97.150;2023-07-20T02:32:49;36.00;87.20
17740;DHT22;8990;33.226;-97.150;2023-07-20T02:35:18;35.90;87.80
17740;DHT22;8990;33.226;-97.150;2023-07-20T02:37:47;35.90;87.90
17740;DHT22;8990;33.226;-97.150;2023-07-20T02:40:18;35.70;88.20
17740;DHT22;8990;33.226;-97.150;2023-07-20T02:42:48;35.70;88.40
17740;DHT22;8990;33.226;-97.150;2023-07-20T02:45:17;35.70;88.60
17740;DHT22;8990;33.226;-97.150;2023-07-20T02:47:45;35.60;88.80
17740;DHT22;8990;33.226;-97.150;2023-07-20T02:50:15;35.60;89.00
17740;DHT22;8990;33.226;-97.150;2023-07-20T02:52:44;35.50;89.10
17740;DHT22;8990;33.226;-97.150;2023-07-20T02:55:13;35.40;88.90
17740;DHT22;8990;33.226;-97.150;2023-07-20T02:57:44;35.50;89.10
17740;DHT22;8990;33.226;-97.150;2023-07-20T03:00:14;35.40;89.30
17740;DHT22;8990;33.226;-97.150;2023-07-20T03:02:44;35.30;89.70
17740;DHT22;8990;33.226;-97.150;2023-07-20T03:05:14;35.30;89.80
17740;DHT22;8990;33.226;-97.150;2023-07-20T03:07:43;35.20;89.90
17740;DHT22;8990;33.226;-97.150;2023-07-20T03:10:13;35.20;89.90
17740;DHT22;8990;33.226;-97.150;2023-07-20T03:12:43;35.10;90.10
17740;DHT22;8990;33.226;-97.150;2023-07-20T03:15:12;35.10;90.20
17740;DHT22;8990;33.226;-97.150;2023-07-20T03:17:41;35.10;90.30
17740;DHT22;8990;33.226;-97.150;2023-07-20T03:20:11;35.00;90.40
17740;DHT22;8990;33.226;-97.150;2023-07-20T03:22:42;35.00;90.30
17740;DHT22;8990;33.226;-97.150;2023-07-20T03:25:11;35.00;90.40
17740;DHT22;8990;33.226;-97.150;2023-07-20T03:27:40;34.90;90.60
17740;DHT22;8990;33.226;-97.150;2023-07-20T03:30:12;34.90;90.60
17740;DHT22;8990;33.226;-97.150;2023-07-20T03:32:41;34.80;90.70
17740;DHT22;8990;33.226;-97.150;2023-07-20T03:35:10;34.70;90.80
17740;DHT22;8990;33.226;-97.150;2023-07-20T03:37:39;34.70;91.00
17740;DHT22;8990;33.226;-97.150;2023-07-20T03:40:09;34.70;90.90
17740;DHT22;8990;33.226;-97.150;2023-07-20T03:42:39;34.60;90.90
17740;DHT22;8990;33.226;-97.150;2023-07-20T03:45:10;34.60;91.10
17740;DHT22;8990;33.226;-97.150;2023-07-20T03:47:39;34.60;91.10
17740;DHT22;8990;33.226;-97.150;2023-07-20T03:50:09;34.50;91.10
17740;DHT22;8990;33.226;-97.150;2023-07-20T03:52:38;34.50;91.20
17740;DHT22;8990;33.226;-97.150;2023-07-20T03:55:08;34.50;91.30
17740;DHT22;8990;33.226;-97.150;2023-07-20T03:57:37;34.30;91.40
17740;DHT22;8990;33.226;-97.150;2023-07-20T04:00:07;34.30;91.50
17740;DHT22;8990;33.226;-97.150;2023-07-20T04:02:41;34.20;91.60
17740;DHT22;8990;33.226;-97.150;2023-07-20T04:05:10;34.00;91.90
17740;DHT22;8990;33.226;-97.150;2023-07-20T04:07:39;34.10;91.80
17740;DHT22;8990;33.226;-97.150;2023-07-20T04:10:08;34.00;91.90
17740;DHT22;8990;33.226;-97.150;2023-07-20T04:12:37;33.90;92.00
17740;DHT22;8990;33.226;-97.150;2023-07-20T04:15:07;33.90;92.30
17740;DHT22;8990;33.226;-97.150;2023-07-20T04:17:36;33.80;92.20
17740;DHT22;8990;33.226;-97.150;2023-07-20T04:20:08;33.80;92.40
17740;DHT22;8990;33.226;-97.150;2023-07-20T04:22:38;33.80;92.50
17740;DHT22;8990;33.226;-97.150;2023-07-20T04:25:10;33.70;92.70
17740;DHT22;8990;33.226;-97.150;2023-07-20T04:27:39;33.70;92.80
17740;DHT22;8990;33.226;-97.150;2023-07-20T04:30:09;33.50;93.00
17740;DHT22;8990;33.226;-97.150;2023-07-20T04:32:38;33.50;93.00
17740;DHT22;8990;33.226;-97.150;2023-07-20T04:35:44;33.50;93.10
17740;DHT22;8990;33.226;-97.150;2023-07-20T04:38:09;33.50;93.10
17740;DHT22;8990;33.226;-97.150;2023-07-20T04:40:39;33.40;93.30
17740;DHT22;8990;33.226;-97.150;2023-07-20T04:43:08;33.30;93.30
17740;DHT22;8990;33.226;-97.150;2023-07-20T04:45:37;33.30;93.60
17740;DHT22;8990;33.226;-97.150;2023-07-20T04:48:12;33.30;93.60
17740;DHT22;8990;33.226;-97.150;2023-07-20T04:50:49;33.20;93.60
17740;DHT22;8990;33.226;-97.150;2023-07-20T04:53:18;33.20;93.60
17740;DHT22;8990;33.226;-97.150;2023-07-20T04:55:50;33.20;93.70
17740;DHT22;8990;33.226;-97.150;2023-07-20T04:58:22;33.20;93.80
17740;DHT22;8990;33.226;-97.150;2023-07-20T05:00:53;33.20;93.90
17740;DHT22;8990;33.226;-97.150;2023-07-20T05:03:22;33.10;93.80
17740;DHT22;8990;33.226;-97.150;2023-07-20T05:05:52;33.10;93.90
17740;DHT22;8990;33.226;-97.150;2023-07-20T05:08:22;33.10;94.10
17740;DHT22;8990;33.226;-97.150;2023-07-20T05:10:50;33.00;94.10
17740;DHT22;8990;33.226;-97.150;2023-07-20T05:13:21;32.90;94.20
17740;DHT22;8990;33.226;-97.150;2023-07-20T05:15:52;32.90;94.30
17740;DHT22;8990;33.226;-97.150;2023-07-20T05:18:22;32.90;94.50
17740;DHT22;8990;33.226;-97.150;2023-07-20T05:20:53;32.90;94.40
17740;DHT22;8990;33.226;-97.150;2023-07-20T05:23:22;32.80;94.60
17740;DHT22;8990;33.226;-97.150;2023-07-20T05:25:54;32.80;94.70
17740;DHT22;8990;33.226;-97.150;2023-07-20T05:28:24;32.80;94.80
17740;DHT22;8990;33.226;-97.150;2023-07-20T05:30:53;32.80;95.10
17740;DHT22;8990;33.226;-97.150;2023-07-20T05:33:22;32.70;95.30
17740;DHT22;8990;33.226;-97.150;2023-07-20T05:35:53;32.70;95.40
17740;DHT22;8990;33.226;-97.150;2023-07-20T05:38:22;32.60;95.40
17740;DHT22;8990;33.226;-97.150;2023-07-20T05:40:51;32.60;95.60
17740;DHT22;8990;33.226;-97.150;2023-07-20T05:43:20;32.60;95.80
17740;DHT22;8990;33.226;-97.150;2023-07-20T05:45:49;32.50;95.90
17740;DHT22;8990;33.226;-97.150;2023-07-20T05:48:18;32.40;96.20
17740;DHT22;8990;33.226;-97.150;2023-07-20T05:50:47;32.30;96.30
17740;DHT22;8990;33.226;-97.150;2023-07-20T05:53:17;32.30;96.60
17740;DHT22;8990;33.226;-97.150;2023-07-20T05:55:52;32.30;96.70
17740;DHT22;8990;33.226;-97.150;2023-07-20T05:58:21;32.30;96.80
17740;DHT22;8990;33.226;-97.150;2023-07-20T06:00:51;32.30;97.00
17740;DHT22;8990;33.226;-97.150;2023-07-20T06:03:20;32.30;97.10
17740;DHT22;8990;33.226;-97.150;2023-07-20T06:05:51;32.30;97.20
17740;DHT22;8990;33.226;-97.150;2023-07-20T06:08:22;32.20;97.40
17740;DHT22;8990;33.226;-97.150;2023-07-20T06:10:51;32.10;97.50
17740;DHT22;8990;33.226;-97.150;2023-07-20T06:13:20;32.10;97.70
17740;DHT22;8990;33.226;-97.150;2023-07-20T06:15:49;32.10;97.80
17740;DHT22;8990;33.226;-97.150;2023-07-20T06:18:18;32.10;97.80
17740;DHT22;8990;33.226;-97.150;2023-07-20T06:20:51;32.00;97.90
17740;DHT22;8990;33.226;-97.150;2023-07-20T06:23:22;31.90;98.10
17740;DHT22;8990;33.226;-97.150;2023-07-20T06:25:51;32.00;98.10
17740;DHT22;8990;33.226;-97.150;2023-07-20T06:28:20;31.90;98.20
17740;DHT22;8990;33.226;-97.150;2023-07-20T06:30:49;31.90;98.30
17740;DHT22;8990;33.226;-97.150;2023-07-20T06:33:18;32.00;98.40
17740;DHT22;8990;33.226;-97.150;2023-07-20T06:35:47;31.90;98.40
17740;DHT22;8990;33.226;-97.150;2023-07-20T06:38:16;31.90;98.50
17740;DHT22;8990;33.226;-97.150;2023-07-20T06:40:46;31.80;98.60
17740;DHT22;8990;33.226;-97.150;2023-07-20T06:43:15;31.80;98.60
17740;DHT22;8990;33.226;-97.150;2023-07-20T06:45:44;31.80;98.80
17740;DHT22;8990;33.226;-97.150;2023-07-20T06:48:14;31.80;99.00
17740;DHT22;8990;33.226;-97.150;2023-07-20T06:50:43;31.70;99.00
17740;DHT22;8990;33.226;-97.150;2023-07-20T06:53:12;31.70;99.10
17740;DHT22;8990;33.226;-97.150;2023-07-20T06:55:42;31.60;99.20
17740;DHT22;8990;33.226;-97.150;2023-07-20T06:58:13;31.60;99.20
17740;DHT22;8990;33.226;-97.150;2023-07-20T07:00:42;31.60;99.30
17740;DHT22;8990;33.226;-97.150;2023-07-20T07:03:11;31.60;99.30
17740;DHT22;8990;33.226;-97.150;2023-07-20T07:05:40;31.60;99.40
17740;DHT22;8990;33.226;-97.150;2023-07-20T07:08:10;31.60;99.60
17740;DHT22;8990;33.226;-97.150;2023-07-20T07:10:39;31.60;99.60
17740;DHT22;8990;33.226;-97.150;2023-07-20T07:13:07;31.60;99.70
17740;DHT22;8990;33.226;-97.150;2023-07-20T07:15:38;31.50;99.80
17740;DHT22;8990;33.226;-97.150;2023-07-20T07:18:07;31.50;99.90
17740;DHT22;8990;33.226;-97.150;2023-07-20T07:20:36;31.50;99.90
17740;DHT22;8990;33.226;-97.150;2023-07-20T07:23:05;31.40;99.90
17740;DHT22;8990;33.226;-97.150;2023-07-20T07:25:34;31.40;99.90
17740;DHT22;8990;33.226;-97.150;2023-07-20T07:28:03;31.40;99.90
17740;DHT22;8990;33.226;-97.150;2023-07-20T07:30:32;31.40;99.90
17740;DHT22;8990;33.226;-97.150;2023-07-20T07:33:02;31.40;99.90
17740;DHT22;8990;33.226;-97.150;2023-07-20T07:35:31;31.30;99.90
17740;DHT22;8990;33.226;-97.150;2023-07-20T07:38:01;31.30;99.90
17740;DHT22;8990;33.226;-97.150;2023-07-20T07:40:30;31.30;99.90
17740;DHT22;8990;33.226;-97.150;2023-07-20T07:43:00;31.20;99.90
17740;DHT22;8990;33.226;-97.150;2023-07-20T07:45:29;31.10;99.90
17740;DHT22;8990;33.226;-97.150;2023-07-20T07:47:58;31.20;99.90
17740;DHT22;8990;33.226;-97.150;2023-07-20T07:50:29;31.10;99.90
17740;DHT22;8990;33.226;-97.150;2023-07-20T07:52:58;31.10;99.90
17740;DHT22;8990;33.226;-97.150;2023-07-20T07:55:26;31.10;99.90
17740;DHT22;8990;33.226;-97.150;2023-07-20T07:57:56;31.10;99.90
17740;DHT22;8990;33.226;-97.150;2023-07-20T08:00:25;31.00;99.90
17740;DHT22;8990;33.226;-97.150;2023-07-20T08:02:54;31.00;99.90
17740;DHT22;8990;33.226;-97.150;2023-07-20T08:05:24;30.90;99.90
17740;DHT22;8990;33.226;-97.150;2023-07-20T08:07:54;30.90;99.90
17740;DHT22;8990;33.226;-97.150;2023-07-20T08:10:23;30.90;99.90
17740;DHT22;8990;33.226;-97.150;2023-07-20T08:12:52;30.80;99.90
17740;DHT22;8990;33.226;-97.150;2023-07-20T08:15:21;30.80;99.90
17740;DHT22;8990;33.226;-97.150;2023-07-20T08:17:50;30.80;99.90
17740;DHT22;8990;33.226;-97.150;2023-07-20T08:20:19;30.70;99.90
17740;DHT22;8990;33.226;-97.150;2023-07-20T08:22:55;30.60;99.90
17740;DHT22;8990;33.226;-97.150;2023-07-20T08:25:25;30.70;99.90
17740;DHT22;8990;33.226;-97.150;2023-07-20T08:27:54;30.70;99.90
17740;DHT22;8990;33.226;-97.150;2023-07-20T08:30:23;30.70;99.90
17740;DHT22;8990;33.226;-97.150;2023-07-20T08:32:52;30.60;99.90
17740;DHT22;8990;33.226;-97.150;2023-07-20T08:35:21;30.60;99.90
17740;DHT22;8990;33.226;-97.150;2023-07-20T08:37:50;30.60;99.90
17740;DHT22;8990;33.226;-97.150;2023-07-20T08:40:21;30.50;99.90
17740;DHT22;8990;33.226;-97.150;2023-07-20T08:42:51;30.50;99.90
17740;DHT22;8990;33.226;-97.150;2023-07-20T08:45:22;30.40;99.90
17740;DHT22;8990;33.226;-97.150;2023-07-20T08:47:55;30.40;99.90
17740;DHT22;8990;33.226;-97.150;2023-07-20T08:50:25;30.40;99.90
17740;DHT22;8990;33.226;-97.150;2023-07-20T08:52:57;30.40;99.90
17740;DHT22;8990;33.226;-97.150;2023-07-20T08:55:28;30.30;99.90
17740;DHT22;8990;33.226;-97.150;2023-07-20T08:57:59;30.30;99.90
17740;DHT22;8990;33.226;-97.150;2023-07-20T09:00:28;30.30;99.90
17740;DHT22;8990;33.226;-97.150;2023-07-20T09:02:58;30.30;99.90
17740;DHT22;8990;33.226;-97.150;2023-07-20T09:05:27;30.30;99.90
17740;DHT22;8990;33.226;-97.150;2023-07-20T09:07:56;30.30;99.90
17740;DHT22;8990;33.226;-97.150;2023-07-20T09:10:27;30.30;99.90
17740;DHT22;8990;33.226;-97.150;2023-07-20T09:12:56;30.20;99.90
17740;DHT22;8990;33.226;-97.150;2023-07-20T09:15:26;30.20;99.90
17740;DHT22;8990;33.226;-97.150;2023-07-20T09:17:55;30.20;99.90
17740;DHT22;8990;33.226;-97.150;2023-07-20T09:20:24;30.20;99.90
17740;DHT22;8990;33.226;-97.150;2023-07-20T09:22:53;30.00;99.90
17740;DHT22;8990;33.226;-97.150;2023-07-20T09:25:22;30.00;99.90
17740;DHT22;8990;33.226;-97.150;2023-07-20T09:27:53;30.10;99.90
17740;DHT22;8990;33.226;-97.150;2023-07-20T09:30:25;30.00;99.90
17740;DHT22;8990;33.226;-97.150;2023-07-20T09:32:54;30.10;99.90
17740;DHT22;8990;33.226;-97.150;2023-07-20T09:35:23;30.00;99.90
17740;DHT22;8990;33.226;-97.150;2023-07-20T09:37:55;30.00;99.90
17740;DHT22;8990;33.226;-97.150;2023-07-20T09:40:28;30.00;99.90
17740;DHT22;8990;33.226;-97.150;2023-07-20T09:42:59;30.00;99.90
17740;DHT22;8990;33.226;-97.150;2023-07-20T09:45:31;30.00;99.90
17740;DHT22;8990;33.226;-97.150;2023-07-20T09:48:04;30.00;99.90
17740;DHT22;8990;33.226;-97.150;2023-07-20T09:50:33;30.00;99.90
17740;DHT22;8990;33.226;-97.150;2023-07-20T09:53:02;30.00;99.90
17740;DHT22;8990;33.226;-97.150;2023-07-20T09:55:33;29.90;99.90
17740;DHT22;8990;33.226;-97.150;2023-07-20T09:58:05;29.90;99.90
17740;DHT22;8990;33.226;-97.150;2023-07-20T10:00:37;29.90;99.90
17740;DHT22;8990;33.226;-97.150;2023-07-20T10:03:07;29.90;99.90
17740;DHT22;8990;33.226;-97.150;2023-07-20T10:05:39;29.90;99.90
17740;DHT22;8990;33.226;-97.150;2023-07-20T10:08:09;29.90;99.90
17740;DHT22;8990;33.226;-97.150;2023-07-20T10:10:41;29.90;99.90
17740;DHT22;8990;33.226;-97.150;2023-07-20T10:13:18;29.90;99.90
17740;DHT22;8990;33.226;-97.150;2023-07-20T10:15:53;29.90;99.90
17740;DHT22;8990;33.226;-97.150;2023-07-20T10:18:27;29.90;99.90
17740;DHT22;8990;33.226;-97.150;2023-07-20T10:21:00;29.90;99.90
17740;DHT22;8990;33.226;-97.150;2023-07-20T10:23:30;29.90;99.90
17740;DHT22;8990;33.226;-97.150;2023-07-20T10:25:59;29.90;99.90
17740;DHT22;8990;33.226;-97.150;2023-07-20T10:28:31;29.80;99.90
17740;DHT22;8990;33.226;-97.150;2023-07-20T10:31:00;29.90;99.90
17740;DHT22;8990;33.226;-97.150;2023-07-20T10:33:30;29.90;99.90
17740;DHT22;8990;33.226;-97.150;2023-07-20T10:36:03;29.90;99.90
17740;DHT22;8990;33.226;-97.150;2023-07-20T10:38:42;29.80;99.90
17740;DHT22;8990;33.226;-97.150;2023-07-20T10:41:19;29.90;99.90
17740;DHT22;8990;33.226;-97.150;2023-07-20T10:43:50;29.90;99.90
17740;DHT22;8990;33.226;-97.150;2023-07-20T10:46:36;29.90;99.90
17740;DHT22;8990;33.226;-97.150;2023-07-20T10:49:11;29.80;99.90
17740;DHT22;8990;33.226;-97.150;2023-07-20T10:51:42;29.90;99.90
17740;DHT22;8990;33.226;-97.150;2023-07-20T10:54:35;29.90;99.90
17740;DHT22;8990;33.226;-97.150;2023-07-20T10:57:24;29.90;99.90
17740;DHT22;8990;33.226;-97.150;2023-07-20T11:00:10;29.90;99.90
17740;DHT22;8990;33.226;-97.150;2023-07-20T11:02:45;29.90;99.90
17740;DHT22;8990;33.226;-97.150;2023-07-20T11:05:34;29.90;99.90
17740;DHT22;8990;33.226;-97.150;2023-07-20T11:08:09;29.90;99.90
17740;DHT22;8990;33.226;-97.150;2023-07-20T11:10:39;29.90;99.90
17740;DHT22;8990;33.226;-97.150;2023-07-20T11:13:26;29.90;99.90
17740;DHT22;8990;33.226;-97.150;2023-07-20T11:16:06;29.90;99.90
17740;DHT22;8990;33.226;-97.150;2023-07-20T11:18:35;29.90;99.90
17740;DHT22;8990;33.226;-97.150;2023-07-20T11:21:09;29.90;99.90
17740;DHT22;8990;33.226;-97.150;2023-07-20T11:23:39;29.90;99.90
17740;DHT22;8990;33.226;-97.150;2023-07-20T11:26:07;29.80;99.90
17740;DHT22;8990;33.226;-97.150;2023-07-20T11:28:36;29.80;99.90
17740;DHT22;8990;33.226;-97.150;2023-07-20T11:31:07;29.80;99.90
17740;DHT22;8990;33.226;-97.150;2023-07-20T11:33:36;29.80;99.90
17740;DHT22;8990;33.226;-97.150;2023-07-20T11:36:08;29.80;99.90
17740;DHT22;8990;33.226;-97.150;2023-07-20T11:38:38;29.80;99.90
17740;DHT22;8990;33.226;-97.150;2023-07-20T11:41:06;29.80;99.90
17740;DHT22;8990;33.226;-97.150;2023-07-20T11:43:36;29.70;99.90
17740;DHT22;8990;33.226;-97.150;2023-07-20T11:46:07;29.70;99.90
17740;DHT22;8990;33.226;-97.150;2023-07-20T11:48:37;29.60;99.90
17740;DHT22;8990;33.226;-97.150;2023-07-20T11:51:07;29.60;99.90
17740;DHT22;8990;33.226;-97.150;2023-07-20T11:53:42;29.60;99.90
17740;DHT22;8990;33.226;-97.150;2023-07-20T11:56:11;29.70;99.90
17740;DHT22;8990;33.226;-97.150;2023-07-20T11:58:44;29.60;99.90
17740;DHT22;8990;33.226;-97.150;2023-07-20T12:01:16;29.60;99.90
17740;DHT22;8990;33.226;-97.150;2023-07-20T12:03:49;29.60;99.90
17740;DHT22;8990;33.226;-97.150;2023-07-20T12:06:22;29.60;99.90
17740;DHT22;8990;33.226;-97.150;2023-07-20T12:08:54;29.60;99.90
17740;DHT22;8990;33.226;-97.150;2023-07-20T12:11:33;29.60;99.90
17740;DHT22;8990;33.226;-97.150;2023-07-20T12:14:04;29.60;99.90
17740;DHT22;8990;33.226;-97.150;2023-07-20T12:16:36;29.60;99.90
17740;DHT22;8990;33.226;-97.150;2023-07-20T12:19:06;29.50;99.90
17740;DHT22;8990;33.226;-97.150;2023-07-20T12:21:37;29.60;99.90
17740;DHT22;8990;33.226;-97.150;2023-07-20T12:24:07;29.60;99.90
17740;DHT22;8990;33.226;-97.150;2023-07-20T12:26:36;29.60;99.90
17740;DHT22;8990;33.226;-97.150;2023-07-20T12:29:05;29.60;99.90
17740;DHT22;8990;33.226;-97.150;2023-07-20T12:31:37;29.60;99.90
17740;DHT22;8990;33.226;-97.150;2023-07-20T12:34:06;29.60;99.90
17740;DHT22;8990;33.226;-97.150;2023-07-20T12:36:36;29.60;99.90
17740;DHT22;8990;33.226;-97.150;2023-07-20T12:39:05;29.70;99.90
17740;DHT22;8990;33.226;-97.150;2023-07-20T12:41:34;29.80;99.90
17740;DHT22;8990;33.226;-97.150;2023-07-20T12:44:03;29.80;99.90
17740;DHT22;8990;33.226;-97.150;2023-07-20T12:46:32;29.90;99.90
17740;DHT22;8990;33.226;-97.150;2023-07-20T12:49:05;30.00;99.90
17740;DHT22;8990;33.226;-97.150;2023-07-20T12:51:34;30.10;99.90
17740;DHT22;8990;33.226;-97.150;2023-07-20T12:54:04;30.10;99.90
17740;DHT22;8990;33.226;-97.150;2023-07-20T12:56:33;30.20;99.90
17740;DHT22;8990;33.226;-97.150;2023-07-20T12:59:02;30.20;99.90
17740;DHT22;8990;33.226;-97.150;2023-07-20T13:01:33;30.10;99.90
17740;DHT22;8990;33.226;-97.150;2023-07-20T13:04:01;30.00;99.90
17740;DHT22;8990;33.226;-97.150;2023-07-20T13:06:32;29.90;99.90
17740;DHT22;8990;33.226;-97.150;2023-07-20T13:09:01;29.90;99.90
17740;DHT22;8990;33.226;-97.150;2023-07-20T13:11:30;29.80;99.90
17740;DHT22;8990;33.226;-97.150;2023-07-20T13:13:59;29.90;99.90
17740;DHT22;8990;33.226;-97.150;2023-07-20T13:16:27;30.10;99.90
17740;DHT22;8990;33.226;-97.150;2023-07-20T13:18:56;30.10;99.90
17740;DHT22;8990;33.226;-97.150;2023-07-20T13:21:25;30.20;99.90
17740;DHT22;8990;33.226;-97.150;2023-07-20T13:23:56;30.40;99.90
17740;DHT22;8990;33.226;-97.150;2023-07-20T13:26:25;30.40;99.90
17740;DHT22;8990;33.226;-97.150;2023-07-20T13:28:53;30.30;99.90
17740;DHT22;8990;33.226;-97.150;2023-07-20T13:31:22;30.40;99.90
17740;DHT22;8990;33.226;-97.150;2023-07-20T13:33:51;30.30;99.90
17740;DHT22;8990;33.226;-97.150;2023-07-20T13:36:20;30.30;99.90
17740;DHT22;8990;33.226;-97.150;2023-07-20T13:38:49;30.40;99.90
17740;DHT22;8990;33.226;-97.150;2023-07-20T13:41:20;30.50;99.90
17740;DHT22;8990;33.226;-97.150;2023-07-20T13:43:50;30.70;99.90
17740;DHT22;8990;33.226;-97.150;2023-07-20T13:46:19;30.80;99.90
17740;DHT22;8990;33.226;-97.150;2023-07-20T13:48:48;31.00;99.90
17740;DHT22;8990;33.226;-97.150;2023-07-20T13:51:17;31.00;99.90
17740;DHT22;8990;33.226;-97.150;2023-07-20T13:53:47;31.10;99.90
17740;DHT22;8990;33.226;-97.150;2023-07-20T13:56:16;31.10;99.90
17740;DHT22;8990;33.226;-97.150;2023-07-20T13:58:46;31.20;99.90
17740;DHT22;8990;33.226;-97.150;2023-07-20T14:01:15;31.20;99.90
17740;DHT22;8990;33.226;-97.150;2023-07-20T14:03:44;31.30;99.90
17740;DHT22;8990;33.226;-97.150;2023-07-20T14:06:13;31.40;99.90
17740;DHT22;8990;33.226;-97.150;2023-07-20T14:08:43;31.40;99.90
17740;DHT22;8990;33.226;-97.150;2023-07-20T14:11:13;31.50;99.90
17740;DHT22;8990;33.226;-97.150;2023-07-20T14:13:42;31.70;99.90
17740;DHT22;8990;33.226;-97.150;2023-07-20T14:16:13;31.70;99.90
17740;DHT22;8990;33.226;-97.150;2023-07-20T14:18:42;31.80;99.90
17740;DHT22;8990;33.226;-97.150;2023-07-20T14:21:14;31.90;99.90
17740;DHT22;8990;33.226;-97.150;2023-07-20T14:23:46;32.00;99.90
17740;DHT22;8990;33.226;-97.150;2023-07-20T14:26:15;32.00;99.90
17740;DHT22;8990;33.226;-97.150;2023-07-20T14:28:44;32.10;99.90
17740;DHT22;8990;33.226;-97.150;2023-07-20T14:31:15;32.10;99.90
17740;DHT22;8990;33.226;-97.150;2023-07-20T14:33:45;32.20;99.90
17740;DHT22;8990;33.226;-97.150;2023-07-20T14:36:15;32.30;99.90
17740;DHT22;8990;33.226;-97.150;2023-07-20T14:38:44;32.40;99.90
17740;DHT22;8990;33.226;-97.150;2023-07-20T14:41:14;32.50;99.90
17740;DHT22;8990;33.226;-97.150;2023-07-20T14:43:43;32.40;99.90
17740;DHT22;8990;33.226;-97.150;2023-07-20T14:46:14;32.40;99.90
17740;DHT22;8990;33.226;-97.150;2023-07-20T14:48:43;32.30;99.90
17740;DHT22;8990;33.226;-97.150;2023-07-20T14:51:12;32.30;99.90
17740;DHT22;8990;33.226;-97.150;2023-07-20T14:53:40;32.40;99.90
17740;DHT22;8990;33.226;-97.150;2023-07-20T14:56:09;32.50;99.90
17740;DHT22;8990;33.226;-97.150;2023-07-20T14:58:38;32.60;99.90
17740;DHT22;8990;33.226;-97.150;2023-07-20T15:01:07;32.80;99.90
17740;DHT22;8990;33.226;-97.150;2023-07-20T15:03:37;32.90;99.90
17740;DHT22;8990;33.226;-97.150;2023-07-20T15:06:10;33.00;99.90
17740;DHT22;8990;33.226;-97.150;2023-07-20T15:08:39;32.90;99.90
17740;DHT22;8990;33.226;-97.150;2023-07-20T15:11:08;32.70;99.90
17740;DHT22;8990;33.226;-97.150;2023-07-20T15:13:37;32.80;99.90
17740;DHT22;8990;33.226;-97.150;2023-07-20T15:16:08;32.70;99.90
17740;DHT22;8990;33.226;-97.150;2023-07-20T15:18:39;32.80;99.90
17740;DHT22;8990;33.226;-97.150;2023-07-20T15:21:08;32.80;99.90
17740;DHT22;8990;33.226;-97.150;2023-07-20T15:23:37;32.70;99.90
17740;DHT22;8990;33.226;-97.150;2023-07-20T15:26:06;32.80;99.90
17740;DHT22;8990;33.226;-97.150;2023-07-20T15:28:36;32.90;99.90
17740;DHT22;8990;33.226;-97.150;2023-07-20T15:31:05;33.00;99.90
17740;DHT22;8990;33.226;-97.150;2023-07-20T15:33:34;33.00;99.90
17740;DHT22;8990;33.226;-97.150;2023-07-20T15:36:05;33.20;99.90